createdAt,value
2023-10-10T00:02:26.431Z,2.28
2023-10-10T00:04:57.099Z,2.08
2023-10-10T00:07:28.811Z,2.42
2023-10-10T00:09:57.343Z,2.60
2023-10-10T00:12:30.237Z,2.28
2023-10-10T00:15:02.905Z,2.90
2023-10-10T00:17:36.663Z,2.42
2023-10-10T00:20:18.114Z,1.90
2023-10-10T00:22:49.152Z,2.08
2023-10-10T00:25:18.617Z,2.28
2023-10-10T00:27:48.598Z,1.92
2023-10-10T00:30:17.380Z,2.00
2023-10-10T00:32:47.663Z,1.80
2023-10-10T00:35:18.909Z,2.08
2023-10-10T00:37:46.711Z,1.90
2023-10-10T00:40:30.683Z,2.03
2023-10-10T00:43:08.483Z,1.80
2023-10-10T00:45:37.462Z,2.15
2023-10-10T00:48:05.568Z,2.05
2023-10-10T00:50:38.001Z,1.73
2023-10-10T00:53:12.888Z,1.75
2023-10-10T00:55:41.219Z,2.03
2023-10-10T00:58:09.675Z,1.98
2023-10-10T01:00:43.540Z,2.25
2023-10-10T01:03:23.588Z,1.90
2023-10-10T01:06:05.842Z,1.90
2023-10-10T01:08:56.742Z,2.05
2023-10-10T01:11:24.858Z,2.00
2023-10-10T01:13:58.238Z,2.40
2023-10-10T01:16:28.249Z,2.08
2023-10-10T01:19:01.355Z,2.20
2023-10-10T01:21:34.152Z,2.10
2023-10-10T01:24:08.843Z,1.80
2023-10-10T01:26:37.828Z,2.30
2023-10-10T01:29:34.925Z,1.80
2023-10-10T01:32:03.817Z,1.95
2023-10-10T01:34:46.280Z,2.00
2023-10-10T01:37:36.608Z,2.10
2023-10-10T01:40:17.631Z,2.08
2023-10-10T01:43:00.683Z,1.83
2023-10-10T01:45:28.824Z,1.80
2023-10-10T01:47:59.460Z,1.83
2023-10-10T01:50:28.639Z,2.28
2023-10-10T01:52:57.678Z,1.65
2023-10-10T01:55:26.511Z,1.88
2023-10-10T01:57:56.248Z,1.88
2023-10-10T02:00:26.943Z,1.50
2023-10-10T02:02:57.333Z,1.67
2023-10-10T02:05:37.962Z,1.85
2023-10-10T02:08:10.696Z,1.90
2023-10-10T02:10:44.685Z,1.77
2023-10-10T02:13:12.682Z,1.50
2023-10-10T02:15:41.071Z,1.53
2023-10-10T02:18:14.313Z,1.55
2023-10-10T02:20:48.078Z,1.80
2023-10-10T02:23:35.195Z,1.70
2023-10-10T02:26:24.875Z,1.88
2023-10-10T02:29:12.694Z,1.70
2023-10-10T02:31:43.067Z,2.00
2023-10-10T02:34:11.888Z,1.63
2023-10-10T02:36:42.383Z,1.83
2023-10-10T02:39:18.614Z,1.40
2023-10-10T02:41:51.265Z,1.70
2023-10-10T02:44:40.275Z,1.60
2023-10-10T02:49:38.671Z,1.95
2023-10-10T02:52:08.175Z,1.83
2023-10-10T02:54:44.405Z,1.92
2023-10-10T02:57:27.526Z,1.92
2023-10-10T03:00:17.202Z,2.20
2023-10-10T03:02:55.159Z,2.05
2023-10-10T03:05:42.088Z,1.90
2023-10-10T03:08:34.726Z,2.10
2023-10-10T03:11:03.828Z,1.98
2023-10-10T03:13:38.549Z,2.10
2023-10-10T03:16:34.203Z,1.80
2023-10-10T03:19:01.991Z,1.50
2023-10-10T03:21:45.480Z,1.58
2023-10-10T03:24:28.918Z,1.73
2023-10-10T03:27:14.985Z,1.80
2023-10-10T03:29:48.905Z,2.33
2023-10-10T03:32:48.755Z,2.17
2023-10-10T03:35:34.718Z,1.90
2023-10-10T03:38:22.212Z,2.30
2023-10-10T03:40:55.392Z,2.60
2023-10-10T03:43:41.631Z,2.22
2023-10-10T03:46:27.641Z,2.22
2023-10-10T03:49:14.298Z,2.03
2023-10-10T03:52:00.803Z,1.50
2023-10-10T03:54:47.163Z,1.60
2023-10-10T03:57:33.042Z,2.00
2023-10-10T04:00:19.434Z,1.95
2023-10-10T04:03:05.087Z,1.65
2023-10-10T04:05:52.603Z,2.30
2023-10-10T04:08:38.474Z,2.20
2023-10-10T04:11:24.801Z,2.50
2023-10-10T04:14:11.245Z,2.90
2023-10-10T04:16:57.088Z,3.38
2023-10-10T04:19:43.495Z,2.97
2023-10-10T04:22:29.414Z,2.50
2023-10-10T04:25:15.828Z,2.75
2023-10-10T04:28:01.608Z,2.70
2023-10-10T04:30:47.923Z,2.58
2023-10-10T04:33:33.576Z,2.50
2023-10-10T04:36:19.832Z,2.17
2023-10-10T04:39:05.698Z,2.08
2023-10-10T04:41:51.620Z,2.00
2023-10-10T04:44:37.404Z,1.90
2023-10-10T04:47:23.809Z,2.00
2023-10-10T04:50:09.734Z,2.20
2023-10-10T04:52:55.749Z,2.10
2023-10-10T04:55:42.306Z,2.15
2023-10-10T04:58:28.263Z,2.22
2023-10-10T05:01:14.070Z,2.10
2023-10-10T05:04:04.003Z,2.95
2023-10-10T05:06:49.699Z,3.20
2023-10-10T05:09:35.530Z,2.83
2023-10-10T05:12:21.774Z,3.05
2023-10-10T05:15:07.429Z,3.00
2023-10-10T05:17:53.337Z,2.65
2023-10-10T05:20:39.648Z,2.70
2023-10-10T05:23:27.605Z,2.90
2023-10-10T05:25:56.327Z,2.75
2023-10-10T05:28:25.087Z,2.80
2023-10-10T05:30:56.895Z,3.13
2023-10-10T05:33:27.530Z,2.63
2023-10-10T05:36:00.419Z,2.70
2023-10-10T05:38:28.012Z,2.47
2023-10-10T05:40:58.866Z,2.80
2023-10-10T05:43:35.066Z,4.05
2023-10-10T05:46:05.322Z,3.08
2023-10-10T05:48:33.881Z,3.03
2023-10-10T05:51:02.169Z,3.00
2023-10-10T05:53:34.236Z,3.03
2023-10-10T05:56:14.016Z,2.83
2023-10-10T05:58:46.542Z,2.80
2023-10-10T06:01:15.906Z,3.03
2023-10-10T06:03:46.139Z,2.80
2023-10-10T06:06:15.113Z,2.28
2023-10-10T06:11:16.005Z,1.92
2023-10-10T06:13:47.975Z,2.42
2023-10-10T06:16:18.798Z,2.58
2023-10-10T06:18:49.226Z,2.50
2023-10-10T06:21:17.732Z,2.60
2023-10-10T06:23:46.206Z,2.45
2023-10-10T06:26:14.446Z,2.00
2023-10-10T06:28:49.090Z,2.20
2023-10-10T06:31:22.049Z,2.60
2023-10-10T06:33:53.683Z,2.25
2023-10-10T06:36:21.587Z,2.13
2023-10-10T06:39:00.725Z,2.28
2023-10-10T06:41:29.506Z,2.05
2023-10-10T06:43:58.855Z,1.88
2023-10-10T06:46:33.546Z,1.95
2023-10-10T06:49:05.872Z,1.92
2023-10-10T06:51:42.446Z,1.55
2023-10-10T06:54:20.854Z,2.00
2023-10-10T06:57:06.956Z,1.48
2023-10-10T06:59:36.718Z,2.35
2023-10-10T07:02:22.863Z,2.50
2023-10-10T07:04:54.058Z,2.15
2023-10-10T07:07:23.007Z,2.10
2023-10-10T07:09:59.395Z,1.73
2023-10-10T07:12:30.136Z,2.00
2023-10-10T07:14:58.190Z,1.60
2023-10-10T07:17:28.832Z,1.52
2023-10-10T07:20:02.881Z,2.00
2023-10-10T07:22:37.045Z,2.10
2023-10-10T07:25:09.323Z,1.58
2023-10-10T07:27:41.020Z,1.70
2023-10-10T07:30:17.022Z,1.70
2023-10-10T07:32:45.982Z,1.60
2023-10-10T07:35:16.594Z,2.63
2023-10-10T07:37:45.651Z,1.60
2023-10-10T07:43:00.724Z,1.40
2023-10-10T07:45:31.451Z,1.40
2023-10-10T07:47:59.104Z,1.48
2023-10-10T07:50:36.380Z,1.60
2023-10-10T07:53:06.967Z,1.70
2023-10-10T07:55:53.948Z,1.70
2023-10-10T07:58:49.602Z,1.30
2023-10-10T08:01:19.992Z,1.30
2023-10-10T08:03:49.041Z,1.58
2023-10-10T08:06:20.292Z,1.40
2023-10-10T08:09:10.328Z,1.65
2023-10-10T08:11:38.880Z,1.60
2023-10-10T08:14:10.422Z,2.00
2023-10-10T08:16:44.273Z,2.05
2023-10-10T08:19:12.260Z,1.90
2023-10-10T08:21:40.851Z,1.60
2023-10-10T08:24:13.370Z,1.50
2023-10-10T08:26:41.001Z,1.50
2023-10-10T08:29:13.399Z,1.90
2023-10-10T08:31:45.874Z,2.05
2023-10-10T08:34:16.524Z,2.15
2023-10-10T08:36:45.403Z,2.42
2023-10-10T08:39:26.484Z,2.30
2023-10-10T08:41:54.708Z,1.90
2023-10-10T08:44:23.425Z,1.77
2023-10-10T08:46:53.587Z,1.60
2023-10-10T08:49:21.499Z,1.58
2023-10-10T08:51:54.099Z,1.73
2023-10-10T08:54:22.437Z,1.60
2023-10-10T08:57:04.397Z,1.80
2023-10-10T08:59:33.142Z,1.70
2023-10-10T09:02:19.081Z,1.45
2023-10-10T09:04:47.511Z,2.00
2023-10-10T09:07:21.769Z,1.90
2023-10-10T09:09:56.711Z,1.77
2023-10-10T09:12:24.703Z,1.63
2023-10-10T09:14:52.817Z,1.90
2023-10-10T09:17:30.083Z,1.85
2023-10-10T09:19:58.411Z,2.00
2023-10-10T09:22:44.113Z,2.10
2023-10-10T09:25:28.320Z,2.15
2023-10-10T09:28:11.979Z,1.73
2023-10-10T09:30:46.827Z,1.67
2023-10-10T09:33:14.993Z,1.70
2023-10-10T09:35:47.299Z,1.77
2023-10-10T09:38:20.601Z,1.70
2023-10-10T09:40:59.751Z,1.27
2023-10-10T09:43:36.886Z,1.38
2023-10-10T09:46:20.661Z,1.30
2023-10-10T09:49:18.983Z,1.92
2023-10-10T09:51:58.813Z,1.27
2023-10-10T09:54:27.067Z,1.40
2023-10-10T09:56:55.821Z,0.95
2023-10-10T09:59:29.862Z,1.40
2023-10-10T10:02:06.325Z,1.63
2023-10-10T10:04:43.492Z,1.23
2023-10-10T10:07:42.434Z,1.45
2023-10-10T10:10:35.126Z,1.30
2023-10-10T10:13:27.739Z,1.65
2023-10-10T10:16:20.938Z,1.80
2023-10-10T10:18:53.336Z,1.50
2023-10-10T10:21:31.174Z,1.35
2023-10-10T10:24:17.184Z,1.00
2023-10-10T10:27:08.049Z,1.50
2023-10-10T10:29:38.536Z,1.30
2023-10-10T10:32:08.910Z,1.30
2023-10-10T10:34:36.574Z,1.40
2023-10-10T10:37:21.645Z,1.38
2023-10-10T10:40:09.846Z,1.60
2023-10-10T10:42:40.137Z,1.30
2023-10-10T10:45:26.980Z,1.42
2023-10-10T10:48:01.044Z,1.60
2023-10-10T10:50:31.818Z,1.20
2023-10-10T10:53:00.945Z,1.38
2023-10-10T10:55:31.271Z,1.30
2023-10-10T10:58:09.157Z,2.78
2023-10-10T11:01:00.081Z,2.00
2023-10-10T11:03:38.519Z,1.40
2023-10-10T11:06:08.153Z,1.42
2023-10-10T11:08:57.705Z,1.23
2023-10-10T11:11:29.638Z,1.65
2023-10-10T11:14:02.130Z,1.50
2023-10-10T11:16:38.398Z,1.38
2023-10-10T11:19:25.661Z,1.60
2023-10-10T11:21:57.576Z,1.60
2023-10-10T11:24:33.111Z,1.63
2023-10-10T11:27:12.865Z,1.65
2023-10-10T11:29:52.050Z,1.70
2023-10-10T11:32:30.524Z,1.83
2023-10-10T11:35:19.263Z,1.90
2023-10-10T11:37:50.196Z,1.45
2023-10-10T11:40:28.694Z,1.55
2023-10-10T11:43:04.964Z,1.20
2023-10-10T11:45:41.359Z,1.77
2023-10-10T11:48:14.438Z,1.80
2023-10-10T11:50:46.866Z,1.77
2023-10-10T11:53:26.540Z,1.40
2023-10-10T11:55:56.179Z,1.30
2023-10-10T11:58:37.290Z,1.30
2023-10-10T12:01:10.618Z,1.17
2023-10-10T12:03:42.434Z,1.50
2023-10-10T12:06:15.785Z,1.45
2023-10-10T12:08:52.439Z,1.27
2023-10-10T12:11:21.839Z,1.02
2023-10-10T12:13:51.774Z,1.20
2023-10-10T12:16:26.729Z,1.40
2023-10-10T12:18:55.459Z,1.10
2023-10-10T12:23:59.538Z,1.25
2023-10-10T12:26:29.036Z,1.02
2023-10-10T12:28:56.639Z,1.10
2023-10-10T12:31:24.286Z,0.98
2023-10-10T12:33:55.278Z,0.80
2023-10-10T12:36:24.425Z,0.77
2023-10-10T12:38:52.063Z,0.85
2023-10-10T12:41:22.633Z,1.00
2023-10-10T12:43:50.795Z,1.20
2023-10-10T12:46:21.899Z,1.23
2023-10-10T12:48:53.206Z,1.10
2023-10-10T12:51:25.198Z,1.10
2023-10-10T12:54:07.128Z,1.17
2023-10-10T12:56:40.691Z,1.10
2023-10-10T12:59:25.879Z,1.10
2023-10-10T13:02:01.105Z,0.98
2023-10-10T13:04:37.526Z,1.00
2023-10-10T13:07:05.496Z,1.10
2023-10-10T13:09:34.027Z,1.10
2023-10-10T13:12:05.479Z,0.90
2023-10-10T13:14:36.190Z,1.42
2023-10-10T13:17:22.838Z,1.33
2023-10-10T13:19:50.621Z,1.15
2023-10-10T13:22:23.685Z,1.30
2023-10-10T13:24:51.618Z,1.00
2023-10-10T13:27:22.118Z,1.20
2023-10-10T13:29:49.820Z,1.15
2023-10-10T13:32:17.578Z,1.20
2023-10-10T13:34:47.036Z,1.25
2023-10-10T13:37:14.899Z,1.20
2023-10-10T13:39:49.089Z,1.20
2023-10-10T13:42:19.003Z,1.30
2023-10-10T13:44:49.925Z,1.08
2023-10-10T13:47:18.412Z,1.00
2023-10-10T13:49:46.394Z,0.98
2023-10-10T13:52:17.632Z,1.10
2023-10-10T13:54:45.243Z,1.40
2023-10-10T13:57:13.960Z,1.10
2023-10-10T13:59:41.752Z,1.10
2023-10-10T14:02:12.479Z,1.13
2023-10-10T14:04:50.370Z,0.95
2023-10-10T14:07:18.538Z,0.98
2023-10-10T14:10:01.666Z,0.98
2023-10-10T14:12:33.955Z,1.10
2023-10-10T14:15:03.046Z,1.15
2023-10-10T14:17:31.557Z,0.90
2023-10-10T14:20:00.656Z,1.40
2023-10-10T14:22:34.922Z,1.00
2023-10-10T14:25:13.776Z,1.00
2023-10-10T14:27:45.204Z,1.30
2023-10-10T14:30:22.122Z,1.30
2023-10-10T14:32:56.218Z,1.02
2023-10-10T14:35:25.252Z,1.50
2023-10-10T14:38:01.575Z,1.35
2023-10-10T14:40:30.004Z,1.23
2023-10-10T14:42:57.571Z,1.17
2023-10-10T14:45:29.989Z,1.35
2023-10-10T14:47:58.151Z,1.40
2023-10-10T14:50:25.969Z,1.30
2023-10-10T14:52:54.918Z,1.50
2023-10-10T14:55:25.694Z,1.38
2023-10-10T14:57:57.376Z,1.60
2023-10-10T15:00:27.116Z,1.98
2023-10-10T15:02:55.641Z,1.50
2023-10-10T15:05:25.271Z,1.35
2023-10-10T15:07:54.696Z,1.50
2023-10-10T15:10:27.514Z,1.45
2023-10-10T15:12:56.216Z,1.50
2023-10-10T15:15:24.767Z,1.20
2023-10-10T15:17:53.005Z,1.60
2023-10-10T15:20:21.052Z,1.45
2023-10-10T15:22:52.881Z,1.60
2023-10-10T15:25:22.856Z,1.77
2023-10-10T15:27:50.819Z,2.60
2023-10-10T15:30:18.531Z,1.95
2023-10-10T15:32:48.670Z,2.15
2023-10-10T15:35:18.560Z,1.80
2023-10-10T15:37:46.276Z,2.20
2023-10-10T15:40:22.414Z,2.15
2023-10-10T15:42:53.629Z,1.80
2023-10-10T15:45:24.261Z,2.00
2023-10-10T15:47:55.948Z,2.30
2023-10-10T15:50:23.773Z,1.90
2023-10-10T15:52:51.765Z,1.80
2023-10-10T15:55:25.494Z,1.80
2023-10-10T15:57:54.723Z,2.17
2023-10-10T16:00:34.130Z,1.92
2023-10-10T16:03:08.210Z,2.05
2023-10-10T16:05:46.373Z,1.98
2023-10-10T16:08:13.963Z,1.98
2023-10-10T16:10:43.070Z,2.03
2023-10-10T16:13:11.204Z,1.95
2023-10-10T16:15:39.293Z,1.50
2023-10-10T16:18:07.538Z,2.00
2023-10-10T16:20:37.760Z,1.80
2023-10-10T16:23:09.459Z,2.00
2023-10-10T16:25:38.675Z,1.90
2023-10-10T16:30:40.550Z,1.83
2023-10-10T16:33:10.424Z,2.05
2023-10-10T16:35:47.500Z,2.03
2023-10-10T16:38:22.983Z,2.67
2023-10-10T16:40:54.394Z,2.72
2023-10-10T16:43:25.462Z,2.90
2023-10-10T16:45:53.222Z,2.70
2023-10-10T16:48:21.143Z,3.13
2023-10-10T16:50:48.747Z,2.70
2023-10-10T16:53:16.192Z,3.15
2023-10-10T16:55:43.673Z,2.85
2023-10-10T16:58:15.674Z,2.97
2023-10-10T17:00:49.298Z,2.67
2023-10-10T17:03:17.920Z,6.78
2023-10-10T17:05:52.545Z,3.15
2023-10-10T17:08:21.201Z,3.30
2023-10-10T17:10:51.571Z,2.65
2023-10-10T17:13:21.185Z,3.28
2023-10-10T17:15:50.191Z,3.00
2023-10-10T17:18:21.595Z,2.70
2023-10-10T17:20:58.555Z,3.28
2023-10-10T17:23:26.391Z,1.77
2023-10-10T17:25:56.773Z,2.28
2023-10-10T17:28:27.427Z,1.60
2023-10-10T17:30:57.516Z,1.50
2023-10-10T17:33:26.085Z,1.90
2023-10-10T17:35:54.191Z,1.55
2023-10-10T17:38:22.705Z,1.07
2023-10-10T17:40:52.300Z,1.20
2023-10-10T17:43:22.483Z,1.55
2023-10-10T17:45:50.456Z,1.30
2023-10-10T17:48:18.552Z,1.73
2023-10-10T17:50:46.415Z,1.20
2023-10-10T17:53:15.850Z,1.20
2023-10-10T17:55:44.448Z,2.00
2023-10-10T17:58:12.253Z,1.25
2023-10-10T18:00:40.009Z,1.80
2023-10-10T18:03:11.042Z,1.33
2023-10-10T18:05:40.769Z,1.50
2023-10-10T18:08:10.026Z,1.42
2023-10-10T18:10:38.289Z,1.50
2023-10-10T18:13:11.673Z,1.20
2023-10-10T18:15:40.149Z,1.17
2023-10-10T18:18:09.351Z,1.40
2023-10-10T18:23:10.520Z,1.88
2023-10-10T18:25:41.323Z,2.10
2023-10-10T18:28:09.867Z,1.90
2023-10-10T18:30:38.832Z,1.70
2023-10-10T18:35:37.198Z,1.17
2023-10-10T18:38:06.993Z,1.40
2023-10-10T18:40:40.901Z,1.42
2023-10-10T18:43:10.249Z,1.50
2023-10-10T18:45:39.458Z,1.50
2023-10-10T18:50:36.591Z,1.17
2023-10-10T18:55:32.309Z,1.48
2023-10-10T18:58:04.646Z,1.75
2023-10-10T19:00:35.469Z,1.50
2023-10-10T19:03:08.292Z,1.60
2023-10-10T19:05:36.891Z,1.70
2023-10-10T19:08:04.916Z,1.90
2023-10-10T19:10:32.645Z,2.03
2023-10-10T19:13:02.005Z,1.75
2023-10-10T19:15:29.538Z,2.25
2023-10-10T19:18:00.531Z,2.17
2023-10-10T19:20:37.831Z,2.20
2023-10-10T19:23:06.073Z,2.33
2023-10-10T19:25:34.037Z,2.00
2023-10-10T19:28:02.969Z,2.40
2023-10-10T19:33:05.823Z,2.22
2023-10-10T19:35:33.475Z,2.05
2023-10-10T19:38:01.069Z,2.45
2023-10-10T19:40:31.134Z,2.20
2023-10-10T19:42:58.942Z,2.05
2023-10-10T19:45:30.565Z,1.30
2023-10-10T19:48:06.958Z,1.73
2023-10-10T19:50:45.945Z,1.60
2023-10-10T19:53:14.669Z,1.83
2023-10-10T19:55:44.711Z,1.60
2023-10-10T19:58:13.896Z,1.95
2023-10-10T20:00:46.785Z,1.80
2023-10-10T20:03:19.206Z,1.70
2023-10-10T20:05:47.063Z,1.73
2023-10-10T20:08:15.056Z,2.00
2023-10-10T20:10:48.545Z,1.75
2023-10-10T20:13:21.070Z,1.92
2023-10-10T20:15:48.637Z,1.73
2023-10-10T20:18:16.897Z,1.60
2023-10-10T20:20:44.784Z,1.70
2023-10-10T20:23:12.452Z,2.00
2023-10-10T20:25:41.693Z,1.90
2023-10-10T20:28:11.013Z,2.03
2023-10-10T20:30:44.555Z,1.70
2023-10-10T20:33:16.978Z,1.58
2023-10-10T20:35:46.134Z,1.67
2023-10-10T20:38:14.951Z,1.20
2023-10-10T20:40:44.603Z,1.25
2023-10-10T20:43:13.946Z,1.52
2023-10-10T20:45:42.641Z,1.60
2023-10-10T20:50:42.276Z,1.95
2023-10-10T20:53:10.471Z,1.50
2023-10-10T20:55:38.295Z,2.38
2023-10-10T20:58:06.030Z,1.60
2023-10-10T21:00:35.866Z,1.70
2023-10-10T21:03:07.430Z,1.73
2023-10-10T21:05:40.451Z,1.77
2023-10-10T21:08:08.670Z,1.63
2023-10-10T21:10:41.436Z,1.60
2023-10-10T21:13:09.687Z,1.67
2023-10-10T21:15:37.827Z,1.65
2023-10-10T21:18:09.292Z,1.55
2023-10-10T21:23:11.832Z,1.30
2023-10-10T21:28:10.137Z,1.60
2023-10-10T21:30:40.153Z,1.45
2023-10-10T21:33:08.419Z,1.67
2023-10-10T21:35:36.824Z,1.35
2023-10-10T21:38:04.960Z,1.35
2023-10-10T21:40:34.043Z,1.60
2023-10-10T21:43:01.830Z,1.50
2023-10-10T21:45:35.697Z,1.80
2023-10-10T21:48:05.581Z,1.75
2023-10-10T21:50:33.870Z,1.35
2023-10-10T21:53:02.049Z,1.87
2023-10-10T21:55:29.653Z,1.63
2023-10-10T21:57:58.202Z,1.58
2023-10-10T22:00:32.059Z,1.50
2023-10-10T22:03:06.854Z,1.85
2023-10-10T22:05:35.976Z,1.50
2023-10-10T22:08:07.594Z,1.67
2023-10-10T22:10:36.699Z,1.73
2023-10-10T22:13:07.659Z,1.80
2023-10-10T22:15:36.359Z,1.52
2023-10-10T22:18:08.008Z,1.70
2023-10-10T22:20:35.906Z,1.90
2023-10-10T22:23:05.858Z,1.45
2023-10-10T22:25:36.094Z,1.73
2023-10-10T22:28:05.641Z,1.50
2023-10-10T22:30:38.462Z,1.35
2023-10-10T22:33:11.450Z,1.60
2023-10-10T22:35:40.449Z,1.85
2023-10-10T22:38:08.191Z,1.55
2023-10-10T22:40:36.024Z,1.83
2023-10-10T22:43:05.358Z,1.45
2023-10-10T22:45:36.292Z,1.42
2023-10-10T22:48:08.709Z,1.30
2023-10-10T22:50:37.067Z,1.45
2023-10-10T22:53:05.891Z,1.90
2023-10-10T22:58:09.186Z,1.98
2023-10-10T23:00:38.156Z,1.83
2023-10-10T23:03:11.981Z,1.73
2023-10-10T23:05:40.997Z,1.92
2023-10-10T23:08:09.052Z,1.92
2023-10-10T23:10:40.145Z,2.28
2023-10-10T23:13:07.914Z,2.00
2023-10-10T23:15:38.493Z,2.10
2023-10-10T23:18:11.776Z,1.70
2023-10-10T23:20:42.496Z,1.90
2023-10-10T23:23:12.416Z,1.73
2023-10-10T23:25:40.673Z,1.88
2023-10-10T23:28:11.593Z,2.00
2023-10-10T23:30:42.025Z,2.03
2023-10-10T23:33:13.160Z,2.20
2023-10-10T23:35:42.538Z,2.45
2023-10-10T23:38:10.814Z,2.30
2023-10-10T23:40:40.022Z,2.13
2023-10-10T23:43:10.933Z,1.92
2023-10-10T23:45:44.517Z,2.33
2023-10-10T23:48:17.020Z,2.22
2023-10-10T23:50:46.404Z,2.38
2023-10-10T23:53:14.584Z,2.30
2023-10-10T23:55:46.378Z,2.13
2023-10-10T23:58:15.534Z,2.25
